Terminal Aerodrome Forecast
Issued by NWS

Home | Current Version | Previous Version | Graphics & Text | Print | Product List | Glossary On
Versions: 1 2 3 4 5 6 7 8 9 10 11 12 13 14 15 16 17 18 19 20 21 22 23 24 25 26
000
FTUS43 KBIS 091148 AAB
TAFDIK
TAF AMD
KDIK 091148Z 0912/1012 31003KT 3/4SM BR OVC002
      TEMPO 0912/0915 1/4SM FG OVC001
     FM091500 VRB03KT P6SM BKN015 BKN090
     FM091900 VRB03KT P6SM BKN040
     FM100800 13007KT P6SM BKN060=

USA.gov is the U.S. government's official web portal to all federal, state and local government web resources and services.